sensor_id;sensor_type;location;lat;lon;timestamp;P1;durP1;ratioP1;P2;durP2;ratioP2
26981;SDS011;14533;50.848;4.380;2022-12-01T00:00:46;45.70;;;27.80;;
26981;SDS011;14533;50.848;4.380;2022-12-01T00:03:16;46.10;;;28.15;;
26981;SDS011;14533;50.848;4.380;2022-12-01T00:05:42;43.72;;;27.13;;
26981;SDS011;14533;50.848;4.380;2022-12-01T00:08:09;48.72;;;31.45;;
26981;SDS011;14533;50.848;4.380;2022-12-01T00:10:35;47.25;;;27.55;;
26981;SDS011;14533;50.848;4.380;2022-12-01T00:13:02;45.42;;;26.92;;
26981;SDS011;14533;50.848;4.380;2022-12-01T00:15:30;47.47;;;28.58;;
26981;SDS011;14533;50.848;4.380;2022-12-01T00:18:03;48.28;;;27.23;;
26981;SDS011;14533;50.848;4.380;2022-12-01T00:20:31;50.22;;;28.80;;
26981;SDS011;14533;50.848;4.380;2022-12-01T00:22:57;47.58;;;29.02;;
26981;SDS011;14533;50.848;4.380;2022-12-01T00:25:23;42.53;;;26.23;;
26981;SDS011;14533;50.848;4.380;2022-12-01T00:27:50;44.22;;;26.67;;
26981;SDS011;14533;50.848;4.380;2022-12-01T00:30:18;43.70;;;27.52;;
26981;SDS011;14533;50.848;4.380;2022-12-01T00:32:45;44.38;;;26.00;;
26981;SDS011;14533;50.848;4.380;2022-12-01T00:35:14;40.92;;;25.80;;
26981;SDS011;14533;50.848;4.380;2022-12-01T00:37:41;44.17;;;26.42;;
26981;SDS011;14533;50.848;4.380;2022-12-01T00:40:07;46.88;;;25.77;;
26981;SDS011;14533;50.848;4.380;2022-12-01T00:42:34;41.67;;;26.05;;
26981;SDS011;14533;50.848;4.380;2022-12-01T00:45:00;43.83;;;26.38;;
26981;SDS011;14533;50.848;4.380;2022-12-01T00:47:26;45.80;;;26.48;;
26981;SDS011;14533;50.848;4.380;2022-12-01T00:49:52;43.85;;;26.33;;
26981;SDS011;14533;50.848;4.380;2022-12-01T00:52:18;43.45;;;26.25;;
26981;SDS011;14533;50.848;4.380;2022-12-01T00:54:46;41.85;;;25.42;;
26981;SDS011;14533;50.848;4.380;2022-12-01T00:57:12;41.40;;;25.88;;
26981;SDS011;14533;50.848;4.380;2022-12-01T00:59:38;43.55;;;26.38;;
26981;SDS011;14533;50.848;4.380;2022-12-01T01:02:06;41.17;;;26.15;;
26981;SDS011;14533;50.848;4.380;2022-12-01T01:04:33;42.33;;;25.50;;
26981;SDS011;14533;50.848;4.380;2022-12-01T01:07:02;44.17;;;27.10;;
26981;SDS011;14533;50.848;4.380;2022-12-01T01:09:28;40.88;;;26.25;;
26981;SDS011;14533;50.848;4.380;2022-12-01T01:11:55;46.45;;;27.17;;
26981;SDS011;14533;50.848;4.380;2022-12-01T01:14:21;50.10;;;27.05;;
26981;SDS011;14533;50.848;4.380;2022-12-01T01:16:46;45.05;;;26.48;;
26981;SDS011;14533;50.848;4.380;2022-12-01T01:19:13;46.63;;;27.25;;
26981;SDS011;14533;50.848;4.380;2022-12-01T01:21:40;47.67;;;28.80;;
26981;SDS011;14533;50.848;4.380;2022-12-01T01:24:07;46.90;;;26.52;;
26981;SDS011;14533;50.848;4.380;2022-12-01T01:26:33;45.88;;;27.33;;
26981;SDS011;14533;50.848;4.380;2022-12-01T01:29:01;44.35;;;25.40;;
26981;SDS011;14533;50.848;4.380;2022-12-01T01:31:28;46.33;;;25.80;;
26981;SDS011;14533;50.848;4.380;2022-12-01T01:33:55;47.60;;;27.08;;
26981;SDS011;14533;50.848;4.380;2022-12-01T01:36:22;41.00;;;25.77;;
26981;SDS011;14533;50.848;4.380;2022-12-01T01:38:49;43.03;;;26.88;;
26981;SDS011;14533;50.848;4.380;2022-12-01T01:41:16;48.55;;;28.20;;
26981;SDS011;14533;50.848;4.380;2022-12-01T01:46:17;51.40;;;27.83;;
26981;SDS011;14533;50.848;4.380;2022-12-01T01:51:38;46.78;;;29.15;;
26981;SDS011;14533;50.848;4.380;2022-12-01T01:54:08;53.08;;;30.88;;
26981;SDS011;14533;50.848;4.380;2022-12-01T01:56:39;48.72;;;29.80;;
26981;SDS011;14533;50.848;4.380;2022-12-01T01:59:10;48.65;;;26.92;;
26981;SDS011;14533;50.848;4.380;2022-12-01T02:01:39;53.38;;;29.40;;
26981;SDS011;14533;50.848;4.380;2022-12-01T02:04:04;52.35;;;28.10;;
26981;SDS011;14533;50.848;4.380;2022-12-01T02:06:32;50.38;;;27.73;;
26981;SDS011;14533;50.848;4.380;2022-12-01T02:08:58;52.40;;;29.30;;
26981;SDS011;14533;50.848;4.380;2022-12-01T02:11:32;51.67;;;29.27;;
26981;SDS011;14533;50.848;4.380;2022-12-01T02:22:28;49.63;;;29.33;;
26981;SDS011;14533;50.848;4.380;2022-12-01T02:25:17;53.72;;;29.80;;
26981;SDS011;14533;50.848;4.380;2022-12-01T02:30:15;57.90;;;33.63;;
26981;SDS011;14533;50.848;4.380;2022-12-01T02:41:23;60.65;;;33.67;;
26981;SDS011;14533;50.848;4.380;2022-12-01T02:43:40;60.00;;;34.45;;
26981;SDS011;14533;50.848;4.380;2022-12-01T02:49:35;67.22;;;36.65;;
26981;SDS011;14533;50.848;4.380;2022-12-01T02:52:05;71.55;;;39.30;;
26981;SDS011;14533;50.848;4.380;2022-12-01T02:54:31;62.78;;;35.28;;
26981;SDS011;14533;50.848;4.380;2022-12-01T02:56:58;66.93;;;38.05;;
26981;SDS011;14533;50.848;4.380;2022-12-01T02:59:24;65.00;;;34.90;;
26981;SDS011;14533;50.848;4.380;2022-12-01T03:17:29;63.40;;;33.95;;
26981;SDS011;14533;50.848;4.380;2022-12-01T03:20:21;64.53;;;36.10;;
26981;SDS011;14533;50.848;4.380;2022-12-01T03:23:06;74.47;;;39.30;;
26981;SDS011;14533;50.848;4.380;2022-12-01T03:25:38;68.53;;;36.55;;
26981;SDS011;14533;50.848;4.380;2022-12-01T03:28:07;76.38;;;39.70;;
26981;SDS011;14533;50.848;4.380;2022-12-01T03:30:37;77.93;;;40.78;;
26981;SDS011;14533;50.848;4.380;2022-12-01T03:33:16;71.13;;;37.38;;
26981;SDS011;14533;50.848;4.380;2022-12-01T03:38:23;75.32;;;38.85;;
26981;SDS011;14533;50.848;4.380;2022-12-01T03:40:51;69.70;;;37.85;;
26981;SDS011;14533;50.848;4.380;2022-12-01T03:43:31;72.80;;;38.47;;
26981;SDS011;14533;50.848;4.380;2022-12-01T03:46:11;68.15;;;38.40;;
26981;SDS011;14533;50.848;4.380;2022-12-01T03:48:46;73.63;;;37.03;;
26981;SDS011;14533;50.848;4.380;2022-12-01T03:54:02;69.47;;;36.63;;
26981;SDS011;14533;50.848;4.380;2022-12-01T03:56:35;65.85;;;37.58;;
26981;SDS011;14533;50.848;4.380;2022-12-01T03:59:14;73.70;;;39.53;;
26981;SDS011;14533;50.848;4.380;2022-12-01T04:01:41;73.97;;;37.88;;
26981;SDS011;14533;50.848;4.380;2022-12-01T04:04:12;69.07;;;38.20;;
26981;SDS011;14533;50.848;4.380;2022-12-01T04:06:42;72.43;;;37.65;;
26981;SDS011;14533;50.848;4.380;2022-12-01T04:09:11;66.63;;;36.42;;
26981;SDS011;14533;50.848;4.380;2022-12-01T04:11:37;68.18;;;36.40;;
26981;SDS011;14533;50.848;4.380;2022-12-01T04:14:21;66.43;;;35.25;;
26981;SDS011;14533;50.848;4.380;2022-12-01T04:16:47;65.47;;;35.15;;
26981;SDS011;14533;50.848;4.380;2022-12-01T04:19:14;65.00;;;34.97;;
26981;SDS011;14533;50.848;4.380;2022-12-01T04:21:41;63.67;;;33.97;;
26981;SDS011;14533;50.848;4.380;2022-12-01T04:24:07;62.13;;;33.00;;
26981;SDS011;14533;50.848;4.380;2022-12-01T04:26:34;59.03;;;30.38;;
26981;SDS011;14533;50.848;4.380;2022-12-01T04:29:02;59.38;;;32.28;;
26981;SDS011;14533;50.848;4.380;2022-12-01T04:31:30;61.95;;;32.75;;
26981;SDS011;14533;50.848;4.380;2022-12-01T04:33:57;62.13;;;32.40;;
26981;SDS011;14533;50.848;4.380;2022-12-01T04:36:23;63.90;;;33.40;;
26981;SDS011;14533;50.848;4.380;2022-12-01T04:38:50;64.55;;;33.47;;
26981;SDS011;14533;50.848;4.380;2022-12-01T04:41:16;64.60;;;32.47;;
26981;SDS011;14533;50.848;4.380;2022-12-01T04:43:44;66.53;;;33.13;;
26981;SDS011;14533;50.848;4.380;2022-12-01T04:46:10;62.83;;;32.30;;
26981;SDS011;14533;50.848;4.380;2022-12-01T04:48:37;60.17;;;31.33;;
26981;SDS011;14533;50.848;4.380;2022-12-01T04:51:05;60.92;;;31.20;;
26981;SDS011;14533;50.848;4.380;2022-12-01T04:53:32;60.45;;;33.00;;
26981;SDS011;14533;50.848;4.380;2022-12-01T04:55:58;63.00;;;30.98;;
26981;SDS011;14533;50.848;4.380;2022-12-01T04:58:24;61.17;;;30.25;;
26981;SDS011;14533;50.848;4.380;2022-12-01T05:00:52;58.85;;;29.73;;
26981;SDS011;14533;50.848;4.380;2022-12-01T05:03:23;62.63;;;31.15;;
26981;SDS011;14533;50.848;4.380;2022-12-01T05:05:58;64.22;;;30.70;;
26981;SDS011;14533;50.848;4.380;2022-12-01T05:08:28;63.00;;;29.60;;
26981;SDS011;14533;50.848;4.380;2022-12-01T05:10:54;65.15;;;32.28;;
26981;SDS011;14533;50.848;4.380;2022-12-01T05:13:20;63.05;;;31.20;;
26981;SDS011;14533;50.848;4.380;2022-12-01T05:15:48;75.60;;;32.70;;
26981;SDS011;14533;50.848;4.380;2022-12-01T05:18:14;65.10;;;32.20;;
26981;SDS011;14533;50.848;4.380;2022-12-01T05:20:39;65.60;;;31.27;;
26981;SDS011;14533;50.848;4.380;2022-12-01T05:23:24;66.72;;;30.95;;
26981;SDS011;14533;50.848;4.380;2022-12-01T05:25:52;64.32;;;29.98;;
26981;SDS011;14533;50.848;4.380;2022-12-01T05:28:19;68.10;;;31.00;;
26981;SDS011;14533;50.848;4.380;2022-12-01T05:30:47;68.28;;;31.33;;
26981;SDS011;14533;50.848;4.380;2022-12-01T05:33:13;64.47;;;31.17;;
26981;SDS011;14533;50.848;4.380;2022-12-01T05:35:39;69.72;;;30.70;;
26981;SDS011;14533;50.848;4.380;2022-12-01T05:38:05;65.25;;;30.27;;
26981;SDS011;14533;50.848;4.380;2022-12-01T05:40:32;64.18;;;30.33;;
26981;SDS011;14533;50.848;4.380;2022-12-01T05:42:58;67.65;;;31.88;;
26981;SDS011;14533;50.848;4.380;2022-12-01T05:45:24;65.88;;;30.13;;
26981;SDS011;14533;50.848;4.380;2022-12-01T05:47:54;72.40;;;30.92;;
26981;SDS011;14533;50.848;4.380;2022-12-01T05:50:20;64.05;;;30.52;;
26981;SDS011;14533;50.848;4.380;2022-12-01T05:52:46;71.70;;;31.52;;
26981;SDS011;14533;50.848;4.380;2022-12-01T05:55:13;75.90;;;29.83;;
26981;SDS011;14533;50.848;4.380;2022-12-01T05:57:40;71.47;;;31.75;;
26981;SDS011;14533;50.848;4.380;2022-12-01T06:00:06;73.63;;;30.40;;
26981;SDS011;14533;50.848;4.380;2022-12-01T06:02:32;71.80;;;30.75;;
26981;SDS011;14533;50.848;4.380;2022-12-01T06:04:59;66.28;;;31.08;;
26981;SDS011;14533;50.848;4.380;2022-12-01T06:07:27;69.05;;;31.38;;
26981;SDS011;14533;50.848;4.380;2022-12-01T06:09:54;70.97;;;31.88;;
26981;SDS011;14533;50.848;4.380;2022-12-01T06:12:20;70.07;;;31.48;;
26981;SDS011;14533;50.848;4.380;2022-12-01T06:14:45;70.07;;;32.28;;
26981;SDS011;14533;50.848;4.380;2022-12-01T06:17:12;63.20;;;30.98;;
26981;SDS011;14533;50.848;4.380;2022-12-01T06:19:38;69.38;;;28.83;;
26981;SDS011;14533;50.848;4.380;2022-12-01T06:22:03;67.53;;;31.75;;
26981;SDS011;14533;50.848;4.380;2022-12-01T06:24:30;69.57;;;31.27;;
26981;SDS011;14533;50.848;4.380;2022-12-01T06:26:56;66.95;;;32.53;;
26981;SDS011;14533;50.848;4.380;2022-12-01T06:29:28;70.18;;;31.02;;
26981;SDS011;14533;50.848;4.380;2022-12-01T06:34:20;65.45;;;30.80;;
26981;SDS011;14533;50.848;4.380;2022-12-01T06:36:46;71.30;;;33.03;;
26981;SDS011;14533;50.848;4.380;2022-12-01T06:39:14;72.90;;;31.00;;
26981;SDS011;14533;50.848;4.380;2022-12-01T06:41:40;68.63;;;31.20;;
26981;SDS011;14533;50.848;4.380;2022-12-01T06:44:06;70.18;;;31.45;;
26981;SDS011;14533;50.848;4.380;2022-12-01T06:46:32;69.40;;;31.35;;
26981;SDS011;14533;50.848;4.380;2022-12-01T06:49:00;67.43;;;31.65;;
26981;SDS011;14533;50.848;4.380;2022-12-01T06:51:26;72.40;;;31.58;;
26981;SDS011;14533;50.848;4.380;2022-12-01T06:53:54;68.78;;;31.73;;
26981;SDS011;14533;50.848;4.380;2022-12-01T06:56:20;68.22;;;32.22;;
26981;SDS011;14533;50.848;4.380;2022-12-01T06:58:50;65.25;;;31.83;;
26981;SDS011;14533;50.848;4.380;2022-12-01T07:01:16;67.97;;;31.02;;
26981;SDS011;14533;50.848;4.380;2022-12-01T07:03:46;73.90;;;30.67;;
26981;SDS011;14533;50.848;4.380;2022-12-01T07:06:14;67.75;;;30.25;;
26981;SDS011;14533;50.848;4.380;2022-12-01T07:08:41;70.78;;;32.17;;
26981;SDS011;14533;50.848;4.380;2022-12-01T07:11:09;66.30;;;31.40;;
26981;SDS011;14533;50.848;4.380;2022-12-01T07:13:39;68.40;;;31.85;;
26981;SDS011;14533;50.848;4.380;2022-12-01T07:16:06;71.18;;;28.05;;
26981;SDS011;14533;50.848;4.380;2022-12-01T07:18:33;63.80;;;28.65;;
26981;SDS011;14533;50.848;4.380;2022-12-01T07:21:00;69.43;;;30.27;;
26981;SDS011;14533;50.848;4.380;2022-12-01T07:23:26;66.75;;;31.02;;
26981;SDS011;14533;50.848;4.380;2022-12-01T07:26:02;63.63;;;30.92;;
26981;SDS011;14533;50.848;4.380;2022-12-01T07:28:31;70.40;;;30.50;;
26981;SDS011;14533;50.848;4.380;2022-12-01T07:31:04;61.30;;;29.10;;
26981;SDS011;14533;50.848;4.380;2022-12-01T07:33:35;73.13;;;30.85;;
26981;SDS011;14533;50.848;4.380;2022-12-01T07:36:02;61.25;;;29.45;;
26981;SDS011;14533;50.848;4.380;2022-12-01T07:38:29;63.95;;;30.33;;
26981;SDS011;14533;50.848;4.380;2022-12-01T07:41:07;66.38;;;29.85;;
26981;SDS011;14533;50.848;4.380;2022-12-01T07:43:38;60.78;;;29.67;;
26981;SDS011;14533;50.848;4.380;2022-12-01T07:48:32;66.55;;;30.60;;
26981;SDS011;14533;50.848;4.380;2022-12-01T07:51:04;66.32;;;30.85;;
26981;SDS011;14533;50.848;4.380;2022-12-01T07:53:34;57.90;;;27.75;;
26981;SDS011;14533;50.848;4.380;2022-12-01T07:56:02;64.45;;;30.45;;
26981;SDS011;14533;50.848;4.380;2022-12-01T07:58:30;67.93;;;30.48;;
26981;SDS011;14533;50.848;4.380;2022-12-01T08:00:56;65.70;;;30.08;;
26981;SDS011;14533;50.848;4.380;2022-12-01T08:03:24;63.47;;;29.45;;
26981;SDS011;14533;50.848;4.380;2022-12-01T08:05:58;61.85;;;29.50;;
26981;SDS011;14533;50.848;4.380;2022-12-01T08:08:25;66.05;;;32.35;;
26981;SDS011;14533;50.848;4.380;2022-12-01T08:10:51;59.45;;;29.52;;
26981;SDS011;14533;50.848;4.380;2022-12-01T08:13:18;63.35;;;30.00;;
26981;SDS011;14533;50.848;4.380;2022-12-01T08:15:44;68.00;;;31.42;;
26981;SDS011;14533;50.848;4.380;2022-12-01T08:18:10;64.70;;;29.55;;
26981;SDS011;14533;50.848;4.380;2022-12-01T08:20:36;63.53;;;30.73;;
26981;SDS011;14533;50.848;4.380;2022-12-01T08:23:02;58.65;;;27.90;;
26981;SDS011;14533;50.848;4.380;2022-12-01T08:25:28;54.92;;;28.90;;
26981;SDS011;14533;50.848;4.380;2022-12-01T08:27:54;57.35;;;29.08;;
26981;SDS011;14533;50.848;4.380;2022-12-01T08:30:21;58.80;;;29.42;;
26981;SDS011;14533;50.848;4.380;2022-12-01T08:32:47;58.38;;;29.13;;
26981;SDS011;14533;50.848;4.380;2022-12-01T08:35:13;65.55;;;28.67;;
26981;SDS011;14533;50.848;4.380;2022-12-01T08:37:39;58.90;;;29.42;;
26981;SDS011;14533;50.848;4.380;2022-12-01T08:40:05;53.15;;;27.30;;
26981;SDS011;14533;50.848;4.380;2022-12-01T08:42:31;67.22;;;31.02;;
26981;SDS011;14533;50.848;4.380;2022-12-01T08:44:58;59.42;;;30.35;;
26981;SDS011;14533;50.848;4.380;2022-12-01T08:47:23;55.40;;;27.42;;
26981;SDS011;14533;50.848;4.380;2022-12-01T08:49:52;55.42;;;28.83;;
26981;SDS011;14533;50.848;4.380;2022-12-01T08:52:18;56.20;;;28.73;;
26981;SDS011;14533;50.848;4.380;2022-12-01T08:54:44;57.47;;;29.23;;
26981;SDS011;14533;50.848;4.380;2022-12-01T08:57:10;55.00;;;29.33;;
26981;SDS011;14533;50.848;4.380;2022-12-01T08:59:37;56.15;;;29.67;;
26981;SDS011;14533;50.848;4.380;2022-12-01T09:02:03;53.35;;;28.92;;
26981;SDS011;14533;50.848;4.380;2022-12-01T09:04:31;50.45;;;27.15;;
26981;SDS011;14533;50.848;4.380;2022-12-01T09:06:58;54.85;;;28.40;;
26981;SDS011;14533;50.848;4.380;2022-12-01T09:09:25;58.75;;;28.90;;
26981;SDS011;14533;50.848;4.380;2022-12-01T09:11:53;52.33;;;28.42;;
26981;SDS011;14533;50.848;4.380;2022-12-01T09:14:19;55.72;;;28.60;;
26981;SDS011;14533;50.848;4.380;2022-12-01T09:16:49;59.90;;;30.73;;
26981;SDS011;14533;50.848;4.380;2022-12-01T09:19:19;61.20;;;30.73;;
26981;SDS011;14533;50.848;4.380;2022-12-01T09:21:45;56.85;;;28.35;;
26981;SDS011;14533;50.848;4.380;2022-12-01T09:24:11;52.30;;;28.60;;
26981;SDS011;14533;50.848;4.380;2022-12-01T09:26:38;60.10;;;29.80;;
26981;SDS011;14533;50.848;4.380;2022-12-01T09:29:09;56.58;;;28.88;;
26981;SDS011;14533;50.848;4.380;2022-12-01T09:31:37;56.17;;;28.77;;
26981;SDS011;14533;50.848;4.380;2022-12-01T09:34:04;50.90;;;27.67;;
26981;SDS011;14533;50.848;4.380;2022-12-01T09:36:32;51.55;;;28.50;;
26981;SDS011;14533;50.848;4.380;2022-12-01T09:39:00;50.63;;;26.90;;
26981;SDS011;14533;50.848;4.380;2022-12-01T09:46:37;55.05;;;29.25;;
26981;SDS011;14533;50.848;4.380;2022-12-01T09:49:11;56.97;;;31.08;;
26981;SDS011;14533;50.848;4.380;2022-12-01T09:51:42;56.70;;;29.55;;
26981;SDS011;14533;50.848;4.380;2022-12-01T09:54:09;64.13;;;30.00;;
26981;SDS011;14533;50.848;4.380;2022-12-01T09:56:45;60.28;;;28.15;;
26981;SDS011;14533;50.848;4.380;2022-12-01T09:59:22;65.10;;;29.88;;
26981;SDS011;14533;50.848;4.380;2022-12-01T10:02:00;62.08;;;31.15;;
26981;SDS011;14533;50.848;4.380;2022-12-01T10:04:33;64.05;;;30.40;;
26981;SDS011;14533;50.848;4.380;2022-12-01T10:07:05;62.50;;;31.48;;
26981;SDS011;14533;50.848;4.380;2022-12-01T10:10:11;56.78;;;29.00;;
26981;SDS011;14533;50.848;4.380;2022-12-01T10:12:41;84.82;;;32.45;;
26981;SDS011;14533;50.848;4.380;2022-12-01T10:15:21;62.08;;;30.25;;
26981;SDS011;14533;50.848;4.380;2022-12-01T10:20:33;65.13;;;31.83;;
26981;SDS011;14533;50.848;4.380;2022-12-01T10:26:06;66.65;;;29.35;;
26981;SDS011;14533;50.848;4.380;2022-12-01T10:31:43;58.30;;;30.63;;
26981;SDS011;14533;50.848;4.380;2022-12-01T10:36:55;56.80;;;30.45;;
26981;SDS011;14533;50.848;4.380;2022-12-01T10:39:55;60.45;;;30.40;;
26981;SDS011;14533;50.848;4.380;2022-12-01T10:42:27;52.85;;;28.67;;
26981;SDS011;14533;50.848;4.380;2022-12-01T10:45:00;60.67;;;29.38;;
26981;SDS011;14533;50.848;4.380;2022-12-01T10:47:29;53.58;;;29.17;;
26981;SDS011;14533;50.848;4.380;2022-12-01T10:49:56;51.53;;;28.38;;
26981;SDS011;14533;50.848;4.380;2022-12-01T10:52:28;60.25;;;30.35;;
26981;SDS011;14533;50.848;4.380;2022-12-01T10:55:00;57.35;;;29.42;;
26981;SDS011;14533;50.848;4.380;2022-12-01T10:57:26;60.75;;;28.77;;
26981;SDS011;14533;50.848;4.380;2022-12-01T10:59:55;76.03;;;32.58;;
26981;SDS011;14533;50.848;4.380;2022-12-01T11:02:33;56.75;;;30.45;;
26981;SDS011;14533;50.848;4.380;2022-12-01T11:05:00;54.00;;;30.33;;
26981;SDS011;14533;50.848;4.380;2022-12-01T11:07:31;59.58;;;30.08;;
26981;SDS011;14533;50.848;4.380;2022-12-01T11:12:34;62.28;;;28.42;;
26981;SDS011;14533;50.848;4.380;2022-12-01T11:15:01;54.10;;;27.70;;
26981;SDS011;14533;50.848;4.380;2022-12-01T11:17:31;59.78;;;28.27;;
26981;SDS011;14533;50.848;4.380;2022-12-01T11:25:35;44.25;;;24.42;;
26981;SDS011;14533;50.848;4.380;2022-12-01T11:28:03;56.15;;;27.00;;
26981;SDS011;14533;50.848;4.380;2022-12-01T11:30:30;59.50;;;36.78;;
26981;SDS011;14533;50.848;4.380;2022-12-01T11:32:58;56.55;;;26.88;;
26981;SDS011;14533;50.848;4.380;2022-12-01T11:35:29;52.00;;;28.38;;
26981;SDS011;14533;50.848;4.380;2022-12-01T11:37:57;76.97;;;27.08;;
26981;SDS011;14533;50.848;4.380;2022-12-01T11:40:32;56.70;;;26.27;;
26981;SDS011;14533;50.848;4.380;2022-12-01T11:43:21;45.50;;;24.77;;
26981;SDS011;14533;50.848;4.380;2022-12-01T11:46:00;47.67;;;24.45;;
26981;SDS011;14533;50.848;4.380;2022-12-01T11:48:31;48.88;;;24.63;;
26981;SDS011;14533;50.848;4.380;2022-12-01T11:54:03;40.78;;;22.58;;
26981;SDS011;14533;50.848;4.380;2022-12-01T11:56:38;41.38;;;20.75;;
26981;SDS011;14533;50.848;4.380;2022-12-01T11:59:04;39.92;;;22.70;;
26981;SDS011;14533;50.848;4.380;2022-12-01T12:01:45;41.83;;;23.08;;
26981;SDS011;14533;50.848;4.380;2022-12-01T12:06:45;38.78;;;19.90;;
26981;SDS011;14533;50.848;4.380;2022-12-01T12:14:35;49.30;;;22.15;;
26981;SDS011;14533;50.848;4.380;2022-12-01T12:17:10;55.40;;;23.63;;
26981;SDS011;14533;50.848;4.380;2022-12-01T12:19:57;40.53;;;21.85;;
26981;SDS011;14533;50.848;4.380;2022-12-01T12:30:54;49.65;;;25.05;;
26981;SDS011;14533;50.848;4.380;2022-12-01T12:36:24;56.88;;;25.20;;
26981;SDS011;14533;50.848;4.380;2022-12-01T12:46:59;44.17;;;25.02;;
26981;SDS011;14533;50.848;4.380;2022-12-01T12:52:40;46.28;;;24.80;;
26981;SDS011;14533;50.848;4.380;2022-12-01T12:55:10;50.05;;;25.00;;
26981;SDS011;14533;50.848;4.380;2022-12-01T12:57:55;40.08;;;23.92;;
26981;SDS011;14533;50.848;4.380;2022-12-01T13:00:25;50.20;;;25.30;;
26981;SDS011;14533;50.848;4.380;2022-12-01T13:05:26;49.10;;;25.73;;
26981;SDS011;14533;50.848;4.380;2022-12-01T13:10:43;46.78;;;24.20;;
26981;SDS011;14533;50.848;4.380;2022-12-01T13:18:25;45.40;;;23.38;;
26981;SDS011;14533;50.848;4.380;2022-12-01T13:21:02;48.25;;;25.13;;
26981;SDS011;14533;50.848;4.380;2022-12-01T13:23:28;48.38;;;25.13;;
26981;SDS011;14533;50.848;4.380;2022-12-01T13:25:57;52.33;;;24.17;;
26981;SDS011;14533;50.848;4.380;2022-12-01T13:28:28;49.97;;;25.40;;
26981;SDS011;14533;50.848;4.380;2022-12-01T13:31:06;47.95;;;26.35;;
26981;SDS011;14533;50.848;4.380;2022-12-01T13:33:34;51.13;;;24.83;;
26981;SDS011;14533;50.848;4.380;2022-12-01T13:36:01;53.95;;;26.80;;
26981;SDS011;14533;50.848;4.380;2022-12-01T13:38:35;54.88;;;27.30;;
26981;SDS011;14533;50.848;4.380;2022-12-01T13:46:22;49.97;;;25.95;;
26981;SDS011;14533;50.848;4.380;2022-12-01T13:48:51;51.78;;;27.02;;
26981;SDS011;14533;50.848;4.380;2022-12-01T13:51:19;55.60;;;27.58;;
26981;SDS011;14533;50.848;4.380;2022-12-01T13:54:00;45.13;;;25.90;;
26981;SDS011;14533;50.848;4.380;2022-12-01T13:56:43;48.38;;;25.23;;
26981;SDS011;14533;50.848;4.380;2022-12-01T14:02:17;40.33;;;23.08;;
26981;SDS011;14533;50.848;4.380;2022-12-01T14:04:46;45.50;;;24.48;;
26981;SDS011;14533;50.848;4.380;2022-12-01T14:12:59;38.45;;;19.83;;
26981;SDS011;14533;50.848;4.380;2022-12-01T14:15:35;38.75;;;20.13;;
26981;SDS011;14533;50.848;4.380;2022-12-01T14:21:46;32.33;;;17.67;;
26981;SDS011;14533;50.848;4.380;2022-12-01T14:24:32;31.52;;;18.05;;
26981;SDS011;14533;50.848;4.380;2022-12-01T14:27:02;33.45;;;18.13;;
26981;SDS011;14533;50.848;4.380;2022-12-01T14:29:32;36.35;;;18.88;;
26981;SDS011;14533;50.848;4.380;2022-12-01T14:32:02;39.83;;;19.63;;
26981;SDS011;14533;50.848;4.380;2022-12-01T14:34:33;43.60;;;20.02;;
26981;SDS011;14533;50.848;4.380;2022-12-01T14:37:12;41.13;;;20.98;;
26981;SDS011;14533;50.848;4.380;2022-12-01T14:39:43;48.30;;;21.95;;
26981;SDS011;14533;50.848;4.380;2022-12-01T14:45:18;39.92;;;21.73;;
26981;SDS011;14533;50.848;4.380;2022-12-01T14:48:12;44.55;;;23.90;;
26981;SDS011;14533;50.848;4.380;2022-12-01T14:50:45;59.78;;;25.65;;
26981;SDS011;14533;50.848;4.380;2022-12-01T14:53:15;43.10;;;23.45;;
26981;SDS011;14533;50.848;4.380;2022-12-01T14:55:46;52.50;;;23.85;;
26981;SDS011;14533;50.848;4.380;2022-12-01T14:58:19;48.78;;;25.50;;
26981;SDS011;14533;50.848;4.380;2022-12-01T15:01:05;43.03;;;22.42;;
26981;SDS011;14533;50.848;4.380;2022-12-01T15:06:07;40.95;;;20.85;;
26981;SDS011;14533;50.848;4.380;2022-12-01T15:08:34;42.08;;;20.52;;
26981;SDS011;14533;50.848;4.380;2022-12-01T15:11:04;47.63;;;22.05;;
26981;SDS011;14533;50.848;4.380;2022-12-01T15:13:32;44.15;;;21.70;;
26981;SDS011;14533;50.848;4.380;2022-12-01T15:16:14;42.90;;;23.25;;
26981;SDS011;14533;50.848;4.380;2022-12-01T15:18:42;42.72;;;23.05;;
26981;SDS011;14533;50.848;4.380;2022-12-01T15:21:10;38.55;;;21.27;;
26981;SDS011;14533;50.848;4.380;2022-12-01T15:23:36;39.92;;;21.15;;
26981;SDS011;14533;50.848;4.380;2022-12-01T15:26:31;39.28;;;20.60;;
26981;SDS011;14533;50.848;4.380;2022-12-01T15:31:38;49.65;;;22.00;;
26981;SDS011;14533;50.848;4.380;2022-12-01T15:34:04;44.63;;;20.70;;
26981;SDS011;14533;50.848;4.380;2022-12-01T15:36:33;42.75;;;20.80;;
26981;SDS011;14533;50.848;4.380;2022-12-01T15:38:59;48.88;;;21.58;;
26981;SDS011;14533;50.848;4.380;2022-12-01T15:41:25;43.10;;;20.73;;
26981;SDS011;14533;50.848;4.380;2022-12-01T15:43:55;42.03;;;20.77;;
26981;SDS011;14533;50.848;4.380;2022-12-01T15:46:30;47.78;;;22.33;;
26981;SDS011;14533;50.848;4.380;2022-12-01T15:49:05;44.63;;;22.90;;
26981;SDS011;14533;50.848;4.380;2022-12-01T15:51:43;41.20;;;22.75;;
26981;SDS011;14533;50.848;4.380;2022-12-01T15:54:19;44.90;;;24.00;;
26981;SDS011;14533;50.848;4.380;2022-12-01T15:56:52;48.85;;;24.67;;
26981;SDS011;14533;50.848;4.380;2022-12-01T16:02:25;56.95;;;25.75;;
26981;SDS011;14533;50.848;4.380;2022-12-01T16:05:15;38.25;;;23.20;;
26981;SDS011;14533;50.848;4.380;2022-12-01T16:07:43;46.42;;;25.88;;
26981;SDS011;14533;50.848;4.380;2022-12-01T16:16:24;43.67;;;24.38;;
26981;SDS011;14533;50.848;4.380;2022-12-01T16:18:55;46.15;;;24.88;;
26981;SDS011;14533;50.848;4.380;2022-12-01T16:21:26;53.03;;;25.08;;
26981;SDS011;14533;50.848;4.380;2022-12-01T16:24:03;46.47;;;26.35;;
26981;SDS011;14533;50.848;4.380;2022-12-01T16:26:30;51.42;;;26.83;;
26981;SDS011;14533;50.848;4.380;2022-12-01T16:29:00;48.13;;;24.35;;
26981;SDS011;14533;50.848;4.380;2022-12-01T16:31:25;53.80;;;26.35;;
26981;SDS011;14533;50.848;4.380;2022-12-01T16:33:58;51.20;;;26.00;;
26981;SDS011;14533;50.848;4.380;2022-12-01T16:36:28;50.33;;;27.25;;
26981;SDS011;14533;50.848;4.380;2022-12-01T16:38:54;47.95;;;26.17;;
26981;SDS011;14533;50.848;4.380;2022-12-01T16:41:30;58.00;;;26.50;;
26981;SDS011;14533;50.848;4.380;2022-12-01T16:44:00;53.22;;;27.13;;
26981;SDS011;14533;50.848;4.380;2022-12-01T16:46:25;52.10;;;26.05;;
26981;SDS011;14533;50.848;4.380;2022-12-01T16:48:51;54.78;;;27.23;;
26981;SDS011;14533;50.848;4.380;2022-12-01T16:51:20;56.08;;;28.40;;
26981;SDS011;14533;50.848;4.380;2022-12-01T16:53:46;52.80;;;27.02;;
26981;SDS011;14533;50.848;4.380;2022-12-01T16:56:14;54.53;;;27.20;;
26981;SDS011;14533;50.848;4.380;2022-12-01T16:58:40;60.10;;;27.63;;
26981;SDS011;14533;50.848;4.380;2022-12-01T17:01:06;54.20;;;27.13;;
26981;SDS011;14533;50.848;4.380;2022-12-01T17:03:32;54.13;;;27.05;;
26981;SDS011;14533;50.848;4.380;2022-12-01T17:05:59;55.80;;;29.35;;
26981;SDS011;14533;50.848;4.380;2022-12-01T17:08:26;63.03;;;30.20;;
26981;SDS011;14533;50.848;4.380;2022-12-01T17:10:52;56.55;;;29.88;;
26981;SDS011;14533;50.848;4.380;2022-12-01T17:13:19;58.05;;;31.50;;